Terminal Aerodrome Forecast
Issued by NWS Sterling, VA

Current Version | Previous Version | Graphics & Text | Print | Product List | Glossary On
Versions: 1 2 3 4 5 6 7 8 9 10 11 12 13 14 15 16 17 18 19 20 21 22
153
FTUS41 KLWX 190533
TAFIAD
TAF
KIAD 190533Z 1906/2012 00000KT P6SM SCT100
     FM190900 26009KT P6SM BKN040
     FM191100 27013G20KT P6SM BKN070
     FM191300 28017G26KT P6SM BKN060
     FM191700 30020G34KT P6SM BKN040
     FM200500 31011KT P6SM SKC=

USA.gov is the U.S. government's official web portal to all federal, state and local government web resources and services.